Aérodrome :
LOGIN :

S'inscrire | Disclaimer

   EN    FR    IT 

 










Légende :    VFR   VFR Marginal   IFR   IFR Intensif   IFR Très Intensif
Visi : 
Plafond : 
>= 8 km
>= 3000ft
5 à 8 km
1000 à 3000 ft
1500m à 5 km
500 à 1000 ft
800 à 1500m
200 à 500 ft
< 800m
< 200 ft
Symboles :   Orages  Brouillard  Fortes neiges  Fortes précipitations  Vent > 20 kt
SIGMETs :   Divers  Orages  Givrage  Turbulence  Onde Orograph.  Cendres Volcan.






- Altitude de l'aérodrome : 218 ft


EGYD - RAF Cranwell

DERNIER METAR :
  • 230750Z 32009KT 9999 FEW016 18/14 Q1015 NOSIG RMK BLU BLU

METARs EXPIRÉS :
  • 230720Z 33009KT 9999 FEW016 17/13 Q1015 NOSIG RMK BLU BLU
  • 230650Z 32008KT CAVOK 16/13 Q1015 NOSIG RMK BLU BLU
  • 230620Z 32006KT CAVOK 16/13 Q1015 NOSIG RMK BLU BLU
  • 230550Z 33005KT CAVOK 15/13 Q1014 NOSIG RMK BLU BLU
  • 230520Z 31008KT 9999 FEW030 15/12 Q1014 RMK BLU
  • 230450Z AUTO 30007KT 9999 NCD 14/12 Q1014
  • 230420Z AUTO 30007KT 9999 NCD 14/12 Q1014
  • 230350Z AUTO 27006KT 9999 SCT098/// 14/12 Q1013
  • 230320Z AUTO 27005KT 9999 OVC099/// 14/11 Q1013

TAF TAF EGYD
Valide du 23 à 09h jusqu'au 23 à 18h UTC


230718Z 2309/2318 33010KT 9999 FEW024
PROB30
TEMPO 2309/2310 SCT024



MET'MAP, la Météo Aéronautique d'un coup d'oeil ! - Copyright ORBIFLY Décembre 2007 - Disclaimer

ORBIFLY MET'MAP TEAM :

Programmation & Développement : Alexandra Zaïnal
Sur une idée originale de : Baudouin d'Aumeries
Soutien technique & logistique : Manuel Goepfert
Assistance : Marc-Olivier Méhu




SOURCES & CREDITS :

   NOAA